Time;durP1;ratioP1;P1;durP2;ratioP2;P2;SDS_P1;SDS_P2;PMS_P1;PMS_P2;Temp;Humidity;BMP_temperature;BMP_pressure;BME280_temperature;BME280_humidity;BME280_pressure;Samples;Min_cycle;Max_cycle;Signal;HPM_P1;HPM_P2
2022/08/27 00:02:11;;;;;;;27.13;13.23;;;19.70;88.80;;;;;;5017340;28;20271;-88
2022/08/27 00:04:38;;;;;;;33.42;14.57;;;19.70;88.70;;;;;;5034300;28;20220;-88
2022/08/27 00:07:05;;;;;;;24.77;13.82;;;19.60;88.60;;;;;;5017071;28;20184;-87
2022/08/27 00:09:31;;;;;;;28.98;12.65;;;19.70;88.60;;;;;;5017720;28;20177;-88
2022/08/27 00:11:57;;;;;;;31.58;11.43;;;19.60;88.60;;;;;;5017214;28;20179;-88
2022/08/27 00:14:24;;;;;;;29.58;12.27;;;19.60;88.60;;;;;;5017921;28;20197;-88
2022/08/27 00:16:50;;;;;;;27.67;11.13;;;19.50;88.60;;;;;;5018007;28;20187;-88
2022/08/27 00:19:16;;;;;;;23.42;10.77;;;19.50;88.70;;;;;;5036295;28;20173;-88
2022/08/27 00:21:42;;;;;;;19.23;9.75;;;19.60;88.80;;;;;;5018985;28;20176;-88
2022/08/27 00:24:08;;;;;;;16.65;8.32;;;19.60;88.70;;;;;;5019168;28;20197;-88
2022/08/27 00:26:34;;;;;;;26.17;9.02;;;19.60;88.60;;;;;;5037736;28;20264;-88
2022/08/27 00:29:00;;;;;;;18.75;8.40;;;19.60;88.60;;;;;;5019298;28;20232;-88
2022/08/27 00:31:26;;;;;;;23.90;8.25;;;19.60;88.50;;;;;;5019187;28;20177;-88
2022/08/27 00:33:51;;;;;;;18.55;7.50;;;19.70;88.50;;;;;;5018940;28;20212;-88
2022/08/27 00:36:17;;;;;;;18.23;7.63;;;19.70;88.50;;;;;;5019409;28;20173;-88
2022/08/27 00:38:43;;;;;;;19.75;8.18;;;19.70;88.50;;;;;;5018794;28;20287;-88
2022/08/27 00:41:10;;;;;;;15.68;7.65;;;19.70;88.40;;;;;;5019570;28;20204;-88
2022/08/27 00:43:58;;;;;;;17.38;7.65;;;19.60;88.40;;;;;;5019126;28;20219;-88
2022/08/27 00:46:38;;;;;;;20.55;8.10;;;19.60;88.40;;;;;;5020500;28;20263;-88
2022/08/27 00:49:23;;;;;;;21.23;8.65;;;19.60;88.50;;;;;;5020046;28;20169;-88
2022/08/27 00:52:06;;;;;;;22.23;9.27;;;19.60;88.40;;;;;;5019445;28;20199;-88
2022/08/27 00:54:32;;;;;;;24.08;10.45;;;19.50;88.50;;;;;;5019666;28;20741;-88
2022/08/27 00:56:59;;;;;;;23.88;10.30;;;19.50;88.30;;;;;;5020019;28;20177;-88
2022/08/27 00:59:28;;;;;;;23.65;12.23;;;19.60;88.40;;;;;;5020268;28;20645;-88
2022/08/27 01:04:41;;;;;;;35.63;13.70;;;19.50;88.30;;;;;;5036717;28;20204;-88
2022/08/27 01:07:08;;;;;;;25.60;12.45;;;19.50;88.20;;;;;;5020793;28;20635;-88
2022/08/27 01:09:34;;;;;;;22.98;11.52;;;19.50;88.20;;;;;;5037554;28;20165;-88
2022/08/27 01:12:00;;;;;;;26.48;12.48;;;19.50;88.30;;;;;;5020691;28;20601;-87
2022/08/27 01:14:26;;;;;;;28.23;12.02;;;19.50;88.30;;;;;;5018888;28;20192;-88
2022/08/27 01:16:55;;;;;;;27.83;11.55;;;19.50;88.40;;;;;;5019812;28;20200;-87
2022/08/27 01:19:31;;;;;;;30.65;10.93;;;19.40;88.30;;;;;;5019096;28;20192;-87
2022/08/27 01:22:10;;;;;;;29.10;10.40;;;19.40;88.40;;;;;;5018837;28;20192;-87
2022/08/27 01:24:45;;;;;;;27.95;10.75;;;19.50;88.40;;;;;;5018671;28;20284;-87
2022/08/27 01:27:15;;;;;;;26.75;10.85;;;19.40;88.30;;;;;;5018771;28;20164;-87
2022/08/27 01:29:41;;;;;;;21.75;9.95;;;19.50;88.30;;;;;;5019522;28;20165;-87
2022/08/27 01:32:11;;;;;;;27.00;10.02;;;19.40;88.20;;;;;;5018647;28;20201;-87
2022/08/27 01:34:37;;;;;;;27.15;10.00;;;19.40;88.30;;;;;;5018483;28;20199;-87
2022/08/27 01:37:05;;;;;;;27.30;10.35;;;19.50;88.40;;;;;;5018572;28;20303;-87
2022/08/27 01:39:32;;;;;;;23.25;10.18;;;19.40;88.50;;;;;;5019372;28;20580;-87
2022/08/27 01:42:06;;;;;;;23.10;10.10;;;19.40;88.50;;;;;;5018447;28;20176;-87
2022/08/27 01:44:49;;;;;;;22.13;10.43;;;19.40;88.70;;;;;;5018482;28;20199;-87
2022/08/27 01:47:16;;;;;;;27.20;10.32;;;19.50;88.50;;;;;;5018640;28;20177;-87
2022/08/27 01:49:42;;;;;;;28.90;9.98;;;19.40;88.40;;;;;;5018343;28;20186;-87
2022/08/27 01:52:08;;;;;;;26.80;10.50;;;19.40;88.40;;;;;;5018341;28;20570;-87
2022/08/27 01:54:33;;;;;;;26.77;10.52;;;19.40;88.40;;;;;;5018214;28;20207;-87
2022/08/27 01:56:59;;;;;;;24.95;9.60;;;19.40;88.50;;;;;;5018188;28;20642;-87
2022/08/27 01:59:24;;;;;;;22.52;9.30;;;19.50;88.50;;;;;;5018244;28;20180;-88
2022/08/27 02:01:53;;;;;;;21.15;8.70;;;19.50;88.40;;;;;;5018475;28;20172;-88
2022/08/27 02:04:19;;;;;;;30.73;8.02;;;19.40;88.40;;;;;;5036043;28;20205;-87
2022/08/27 02:06:45;;;;;;;17.13;8.25;;;19.40;88.40;;;;;;5018831;28;20176;-87
2022/08/27 02:09:11;;;;;;;21.63;8.18;;;19.30;88.60;;;;;;5017993;28;20196;-88
2022/08/27 02:11:37;;;;;;;16.45;7.82;;;19.40;88.80;;;;;;5035639;28;20168;-88
2022/08/27 02:14:03;;;;;;;26.27;9.10;;;19.40;88.60;;;;;;5018174;28;20208;-87
2022/08/27 02:16:31;;;;;;;19.15;7.65;;;19.40;88.50;;;;;;5018728;28;20529;-87
2022/08/27 02:18:59;;;;;;;29.38;7.32;;;19.40;88.50;;;;;;5017697;28;20172;-88
2022/08/27 02:21:25;;;;;;;20.25;7.18;;;19.30;88.50;;;;;;5016701;28;20184;-87
2022/08/27 02:23:51;;;;;;;24.10;7.78;;;19.30;88.70;;;;;;5017636;28;20201;-88
2022/08/27 02:26:17;;;;;;;18.65;7.45;;;19.30;88.80;;;;;;5017975;28;20219;-87
2022/08/27 02:28:42;;;;;;;20.13;7.60;;;19.20;88.80;;;;;;5017609;28;20224;-87
2022/08/27 02:31:09;;;;;;;21.08;8.00;;;19.20;88.90;;;;;;5017607;28;20176;-87
2022/08/27 02:33:35;;;;;;;19.60;7.30;;;19.20;89.00;;;;;;5017345;28;20208;-87
2022/08/27 02:36:01;;;;;;;24.60;8.68;;;19.20;88.90;;;;;;5018181;28;20177;-87
2022/08/27 02:38:27;;;;;;;14.43;6.97;;;19.20;88.90;;;;;;5017636;28;20646;-87
2022/08/27 02:40:52;;;;;;;14.75;6.65;;;19.20;89.00;;;;;;5017484;28;20184;-87
2022/08/27 02:43:18;;;;;;;17.02;7.22;;;19.10;88.90;;;;;;5017285;28;20251;-88
2022/08/27 02:45:43;;;;;;;18.23;7.22;;;19.20;89.00;;;;;;5017695;28;20176;-87
2022/08/27 02:48:09;;;;;;;21.73;7.82;;;19.10;88.90;;;;;;5017325;28;20187;-87
2022/08/27 02:50:35;;;;;;;14.50;7.18;;;19.10;88.90;;;;;;5017494;28;20276;-87
2022/08/27 02:53:02;;;;;;;15.38;7.40;;;19.20;88.90;;;;;;5017011;28;20212;-88
2022/08/27 02:55:28;;;;;;;20.77;7.15;;;19.20;88.80;;;;;;5017652;28;20635;-87
2022/08/27 02:57:54;;;;;;;18.90;7.60;;;19.10;88.90;;;;;;5017095;28;20183;-87
2022/08/27 03:00:22;;;;;;;17.02;7.25;;;19.10;88.90;;;;;;5017352;28;20177;-87
2022/08/27 03:02:48;;;;;;;15.23;7.65;;;19.10;88.90;;;;;;5016891;28;20199;-87
2022/08/27 03:05:15;;;;;;;23.40;7.95;;;19.10;89.00;;;;;;5017131;28;20184;-87
2022/08/27 03:07:41;;;;;;;16.10;7.22;;;19.00;88.90;;;;;;5016871;28;20267;-87
2022/08/27 03:10:08;;;;;;;18.63;8.13;;;19.10;89.00;;;;;;5016968;28;20208;-87
2022/08/27 03:12:37;;;;;;;21.75;7.93;;;19.00;88.90;;;;;;5016796;28;20196;-87
2022/08/27 03:15:08;;;;;;;16.52;8.05;;;19.10;88.90;;;;;;5034680;28;20180;-87
2022/08/27 03:20:19;;;;;;;18.88;8.38;;;19.00;88.70;;;;;;5034842;28;20155;-87
2022/08/27 03:22:45;;;;;;;21.73;7.32;;;19.00;88.70;;;;;;5016868;28;20181;-87
2022/08/27 03:25:11;;;;;;;14.93;6.78;;;19.10;88.80;;;;;;5016500;28;20285;-87
2022/08/27 03:27:38;;;;;;;19.90;7.03;;;19.00;88.80;;;;;;5034332;28;20196;-88
2022/08/27 03:30:06;;;;;;;15.05;7.53;;;19.00;88.80;;;;;;5016653;28;20192;-87
2022/08/27 03:32:33;;;;;;;18.92;6.30;;;19.00;88.70;;;;;;5015971;28;20200;-87
2022/08/27 03:34:59;;;;;;;11.02;5.45;;;18.90;88.70;;;;;;5016387;28;20593;-87
2022/08/27 03:37:24;;;;;;;13.48;6.07;;;18.90;88.70;;;;;;5016614;28;20180;-87
2022/08/27 03:39:50;;;;;;;12.52;5.70;;;18.90;88.70;;;;;;5034283;28;20591;-87
2022/08/27 03:42:16;;;;;;;9.90;5.22;;;19.00;88.80;;;;;;5016312;28;20195;-87
2022/08/27 03:44:41;;;;;;;10.85;5.45;;;18.90;88.70;;;;;;5016170;28;20211;-87
2022/08/27 03:47:07;;;;;;;12.07;5.57;;;19.00;88.60;;;;;;5016157;28;20259;-87
2022/08/27 03:49:33;;;;;;;10.63;5.43;;;19.00;88.50;;;;;;5016501;28;20208;-87
2022/08/27 03:51:58;;;;;;;9.73;5.00;;;18.90;88.30;;;;;;5033724;28;20192;-87
2022/08/27 03:54:24;;;;;;;11.63;5.45;;;18.90;88.40;;;;;;5015995;28;20246;-88
2022/08/27 03:56:50;;;;;;;9.60;4.78;;;18.90;88.50;;;;;;5016450;28;20192;-87
2022/08/27 03:59:16;;;;;;;8.43;4.90;;;18.80;88.40;;;;;;5016412;28;20180;-87
2022/08/27 04:01:42;;;;;;;11.43;5.20;;;18.80;88.40;;;;;;5016069;28;20183;-88
2022/08/27 04:04:08;;;;;;;9.35;4.75;;;18.90;88.30;;;;;;5015969;28;20203;-88
2022/08/27 04:06:34;;;;;;;9.35;4.85;;;18.90;88.20;;;;;;5016350;28;20271;-87
2022/08/27 04:09:00;;;;;;;7.10;4.53;;;18.90;88.10;;;;;;5016076;28;20222;-87
2022/08/27 04:11:28;;;;;;;9.13;4.07;;;18.80;88.00;;;;;;5015865;28;20184;-87
2022/08/27 04:13:54;;;;;;;11.73;4.55;;;18.80;88.10;;;;;;5016056;28;20208;-88
2022/08/27 04:16:19;;;;;;;8.57;4.75;;;18.80;88.20;;;;;;5016554;28;20650;-87
2022/08/27 04:18:45;;;;;;;7.60;4.28;;;18.70;88.20;;;;;;5016151;28;20211;-87
2022/08/27 04:21:13;;;;;;;13.43;4.60;;;18.70;88.00;;;;;;5015742;28;20191;-87
2022/08/27 04:23:40;;;;;;;8.30;4.35;;;18.70;88.20;;;;;;5015927;28;20281;-88
2022/08/27 04:26:08;;;;;;;7.82;4.93;;;18.70;88.30;;;;;;5033345;28;20200;-87
2022/08/27 04:28:34;;;;;;;12.60;4.43;;;18.70;88.10;;;;;;5015688;28;20620;-87
2022/08/27 04:31:02;;;;;;;9.23;4.65;;;18.70;88.10;;;;;;5016081;28;20228;-87
2022/08/27 04:33:31;;;;;;;9.68;4.57;;;18.70;88.00;;;;;;5015405;28;20295;-87
2022/08/27 04:36:09;;;;;;;11.75;5.10;;;18.70;87.90;;;;;;5015539;28;20190;-88
2022/08/27 04:38:36;;;;;;;8.65;4.88;;;18.60;87.70;;;;;;5015556;28;20254;-87
2022/08/27 04:41:21;;;;;;;11.52;5.63;;;18.60;87.80;;;;;;5015533;28;20287;-87
2022/08/27 04:43:49;;;;;;;9.00;4.50;;;18.60;87.80;;;;;;5015545;28;20223;-87
2022/08/27 04:46:20;;;;;;;9.63;4.60;;;18.50;88.00;;;;;;5018792;28;20631;-88
2022/08/27 04:48:45;;;;;;;8.00;4.68;;;18.50;88.00;;;;;;5037504;28;20547;-87
2022/08/27 04:51:11;;;;;;;9.88;4.40;;;18.50;87.90;;;;;;5019451;28;20173;-88
2022/08/27 04:53:37;;;;;;;5.57;4.18;;;18.40;87.90;;;;;;5019620;28;20207;-88
2022/08/27 04:56:03;;;;;;;14.30;5.00;;;18.40;88.00;;;;;;5019442;28;20169;-87
2022/08/27 04:58:29;;;;;;;9.70;4.72;;;18.40;87.80;;;;;;5019961;28;20356;-87
2022/08/27 05:00:58;;;;;;;8.60;4.47;;;18.40;87.80;;;;;;5037254;28;20724;-87
2022/08/27 05:03:25;;;;;;;5.70;3.95;;;18.30;87.70;;;;;;5019315;28;20207;-87
2022/08/27 05:05:53;;;;;;;8.50;4.30;;;18.40;87.90;;;;;;5019158;28;20651;-87
2022/08/27 05:08:18;;;;;;;6.85;4.22;;;18.40;87.80;;;;;;5019428;28;20191;-87
2022/08/27 05:10:47;;;;;;;11.23;4.50;;;18.40;87.60;;;;;;5019443;28;20590;-87
2022/08/27 05:13:13;;;;;;;11.27;4.85;;;18.40;87.70;;;;;;5018840;28;20208;-88
2022/08/27 05:15:40;;;;;;;7.63;4.55;;;18.40;87.60;;;;;;5018972;28;20181;-88
2022/08/27 05:18:07;;;;;;;10.05;4.75;;;18.40;87.60;;;;;;5018859;28;20176;-87
2022/08/27 05:20:36;;;;;;;11.65;4.72;;;18.30;87.50;;;;;;5036657;28;20184;-88
2022/08/27 05:23:02;;;;;;;14.50;4.55;;;18.30;87.70;;;;;;5018838;28;20208;-87
2022/08/27 05:25:27;;;;;;;11.10;4.78;;;18.30;87.70;;;;;;5018885;28;20180;-87
2022/08/27 05:27:53;;;;;;;12.20;4.85;;;18.30;87.80;;;;;;5019061;28;20196;-87
2022/08/27 05:30:19;;;;;;;11.40;5.13;;;18.30;87.70;;;;;;5019148;28;20176;-87
2022/08/27 05:32:45;;;;;;;8.57;4.57;;;18.40;87.80;;;;;;5018490;28;20255;-87
2022/08/27 05:35:10;;;;;;;10.18;5.28;;;18.30;87.60;;;;;;5018901;28;20196;-87
2022/08/27 05:37:36;;;;;;;10.32;5.57;;;18.30;87.50;;;;;;5036518;28;20581;-87
2022/08/27 05:40:04;;;;;;;10.30;4.90;;;18.30;87.60;;;;;;5036265;28;20168;-87
2022/08/27 05:42:30;;;;;;;9.10;4.85;;;18.20;87.70;;;;;;5018451;28;20177;-87
2022/08/27 05:44:56;;;;;;;12.30;5.63;;;18.30;87.70;;;;;;5018396;28;20216;-87
2022/08/27 05:47:22;;;;;;;7.88;4.93;;;18.30;87.70;;;;;;5018420;28;20172;-87
2022/08/27 05:49:50;;;;;;;6.75;4.35;;;18.30;87.80;;;;;;5018427;28;20177;-87
2022/08/27 05:52:16;;;;;;;11.15;4.90;;;18.30;87.60;;;;;;5018294;28;20256;-87
2022/08/27 05:54:42;;;;;;;10.55;4.47;;;18.30;87.50;;;;;;5018197;28;20200;-88
2022/08/27 05:57:08;;;;;;;8.15;4.35;;;18.30;87.40;;;;;;5018255;28;20200;-88
2022/08/27 06:02:19;;;;;;;12.90;5.10;;;18.30;87.40;;;;;;5036472;28;20164;-87
2022/08/27 06:04:45;;;;;;;12.25;4.70;;;18.30;87.30;;;;;;5018455;28;20220;-87
2022/08/27 06:07:12;;;;;;;11.23;5.00;;;18.30;87.40;;;;;;5018208;28;20181;-88
2022/08/27 06:09:38;;;;;;;11.00;5.15;;;18.20;87.40;;;;;;5018379;28;20238;-86
2022/08/27 06:12:05;;;;;;;15.02;5.03;;;18.30;87.40;;;;;;5018889;28;20181;-87
2022/08/27 06:14:30;;;;;;;10.80;5.03;;;18.30;87.30;;;;;;5017789;28;20197;-86
2022/08/27 06:16:59;;;;;;;10.85;5.80;;;18.30;87.30;;;;;;5017921;28;20190;-87
2022/08/27 06:19:24;;;;;;;11.98;5.47;;;18.30;87.30;;;;;;5019046;28;20227;-86
2022/08/27 06:21:50;;;;;;;11.23;5.43;;;18.30;87.30;;;;;;5018912;28;20590;-87
2022/08/27 06:24:16;;;;;;;11.90;4.78;;;18.20;87.40;;;;;;5018215;28;20203;-87
2022/08/27 06:26:43;;;;;;;10.75;5.32;;;18.30;87.40;;;;;;5035747;28;20173;-87
2022/08/27 06:29:10;;;;;;;8.80;5.15;;;18.30;87.30;;;;;;5036126;28;20192;-88
2022/08/27 06:31:36;;;;;;;9.50;5.18;;;18.20;87.20;;;;;;5017619;28;20188;-88
2022/08/27 06:34:05;;;;;;;11.20;4.82;;;18.20;87.00;;;;;;5017484;28;20212;-88
2022/08/27 06:36:34;;;;;;;10.70;4.80;;;18.20;87.00;;;;;;5017501;28;20184;-88
2022/08/27 06:38:59;;;;;;;10.38;4.80;;;18.20;87.00;;;;;;5035415;28;20682;-88
2022/08/27 06:41:27;;;;;;;7.78;4.70;;;18.30;86.90;;;;;;5017598;28;20203;-88
2022/08/27 06:43:54;;;;;;;10.98;5.00;;;18.30;86.80;;;;;;5018197;28;20197;-88
2022/08/27 06:46:22;;;;;;;5.70;4.40;;;18.30;86.80;;;;;;5035985;28;20552;-86
2022/08/27 06:48:52;;;;;;;12.18;5.25;;;18.30;87.00;;;;;;5017352;28;20180;-86
2022/08/27 06:51:23;;;;;;;9.95;5.07;;;18.30;86.80;;;;;;5017352;28;20200;-86
2022/08/27 06:53:49;;;;;;;12.93;5.00;;;18.40;86.60;;;;;;5034778;28;20197;-86
2022/08/27 06:56:16;;;;;;;13.05;6.03;;;18.30;86.50;;;;;;5017293;28;20173;-86
2022/08/27 06:58:42;;;;;;;15.95;6.65;;;18.30;86.30;;;;;;5017083;28;20177;-86
2022/08/27 07:01:12;;;;;;;9.38;6.15;;;18.30;86.40;;;;;;5034829;28;20169;-86
2022/08/27 07:03:38;;;;;;;12.98;5.45;;;18.30;86.40;;;;;;5017932;28;20197;-86
2022/08/27 07:06:06;;;;;;;14.80;6.47;;;18.40;86.30;;;;;;5017026;28;20176;-86
2022/08/27 07:08:31;;;;;;;16.02;6.43;;;18.40;86.20;;;;;;5034018;28;20650;-86
2022/08/27 07:10:58;;;;;;;12.60;5.75;;;18.50;86.40;;;;;;5018088;28;20180;-87
2022/08/27 07:13:23;;;;;;;15.93;6.03;;;18.50;86.40;;;;;;5016608;28;20208;-86
2022/08/27 07:15:50;;;;;;;13.05;5.85;;;18.60;86.00;;;;;;5034461;28;20173;-86
2022/08/27 07:18:15;;;;;;;15.43;6.97;;;18.60;86.20;;;;;;5017652;28;20173;-86
2022/08/27 07:20:41;;;;;;;15.77;6.38;;;18.70;86.10;;;;;;5016723;28;20552;-86
2022/08/27 07:23:07;;;;;;;14.90;7.00;;;18.70;85.90;;;;;;5034289;28;20212;-87
2022/08/27 07:25:32;;;;;;;11.55;6.10;;;18.70;85.80;;;;;;5016591;28;20188;-86
2022/08/27 07:27:58;;;;;;;16.23;6.00;;;18.70;85.40;;;;;;5016509;28;20291;-86
2022/08/27 07:30:25;;;;;;;14.25;6.53;;;18.70;85.50;;;;;;5016453;28;20215;-86
2022/08/27 07:32:51;;;;;;;13.40;6.55;;;18.70;85.60;;;;;;5016226;28;20200;-86
2022/08/27 07:35:17;;;;;;;19.45;6.43;;;18.70;85.60;;;;;;5016420;28;20165;-86
2022/08/27 07:37:42;;;;;;;17.45;6.53;;;18.70;85.50;;;;;;5016422;28;20247;-86
2022/08/27 07:40:12;;;;;;;15.15;6.68;;;18.70;85.50;;;;;;5016366;28;20172;-86
2022/08/27 07:45:22;;;;;;;15.90;5.38;;;18.70;85.40;;;;;;5034463;28;20176;-86
2022/08/27 07:47:49;;;;;;;17.45;6.57;;;18.70;85.30;;;;;;5033870;28;20177;-86
2022/08/27 07:50:15;;;;;;;17.60;6.50;;;18.70;85.40;;;;;;5033923;28;20593;-86
2022/08/27 07:52:42;;;;;;;19.10;6.40;;;18.70;85.10;;;;;;5016120;28;20258;-86
2022/08/27 07:55:10;;;;;;;16.83;6.68;;;18.70;84.90;;;;;;5016087;28;20173;-86
2022/08/27 07:57:35;;;;;;;16.92;6.57;;;18.70;84.80;;;;;;5016013;28;20199;-86
2022/08/27 08:00:01;;;;;;;23.25;6.43;;;18.70;84.80;;;;;;5016102;28;20169;-86
2022/08/27 08:02:26;;;;;;;15.93;6.13;;;18.70;84.80;;;;;;5015944;28;20183;-87
2022/08/27 08:04:52;;;;;;;20.88;6.88;;;18.70;84.80;;;;;;5015939;28;20197;-86
2022/08/27 08:07:18;;;;;;;16.85;5.82;;;18.70;84.70;;;;;;5015921;28;20180;-86
2022/08/27 08:09:43;;;;;;;18.33;6.20;;;18.70;84.80;;;;;;5033591;28;20251;-86
2022/08/27 08:12:09;;;;;;;18.80;6.05;;;18.60;84.70;;;;;;5015842;28;20180;-87
2022/08/27 08:14:35;;;;;;;18.02;5.53;;;18.60;84.80;;;;;;5015864;28;20195;-86
2022/08/27 08:17:01;;;;;;;19.15;5.53;;;18.60;85.00;;;;;;5015807;28;20554;-86
2022/08/27 08:19:28;;;;;;;19.95;6.30;;;18.60;85.20;;;;;;5015174;28;20181;-86
2022/08/27 08:21:53;;;;;;;16.20;5.78;;;18.60;84.90;;;;;;5033353;28;20187;-86
2022/08/27 08:24:20;;;;;;;18.73;6.05;;;18.60;85.10;;;;;;5015729;28;20629;-86
2022/08/27 08:26:45;;;;;;;19.70;6.53;;;18.60;85.20;;;;;;5015721;28;20187;-86
2022/08/27 08:29:11;;;;;;;22.60;6.63;;;18.60;84.70;;;;;;5033232;28;20267;-87
2022/08/27 08:31:37;;;;;;;18.40;6.72;;;18.60;84.90;;;;;;5015606;28;20176;-86
2022/08/27 08:34:03;;;;;;;22.00;7.18;;;18.50;84.90;;;;;;5015456;28;20825;-86
2022/08/27 08:36:28;;;;;;;20.38;6.57;;;18.60;84.80;;;;;;5015649;28;20643;-86
2022/08/27 08:38:54;;;;;;;24.58;7.47;;;18.60;84.60;;;;;;5016026;28;20184;-86
2022/08/27 08:41:39;;;;;;;18.00;6.45;;;18.50;84.50;;;;;;4999101;28;20275;-86
2022/08/27 08:44:25;;;;;;;15.63;6.53;;;18.50;84.50;;;;;;5016043;28;20200;-86
2022/08/27 08:47:00;;;;;;;19.45;7.03;;;18.50;84.80;;;;;;5015529;28;20200;-86
2022/08/27 08:49:37;;;;;;;21.23;7.28;;;18.60;84.60;;;;;;5016427;28;20172;-86
2022/08/27 08:52:26;;;;;;;15.43;4.90;;;18.50;84.50;;;;;;5015358;28;20272;-87
2022/08/27 08:54:55;;;;;;;19.50;5.75;;;18.60;83.80;;;;;;5032988;28;20193;-86
2022/08/27 08:57:26;;;;;;;15.90;4.70;;;18.50;83.50;;;;;;5033033;28;20165;-87
2022/08/27 09:00:11;;;;;;;14.93;5.10;;;18.60;83.60;;;;;;5033057;28;20164;-86
2022/08/27 09:02:37;;;;;;;10.80;3.70;;;18.60;83.00;;;;;;5032913;28;20168;-87
2022/08/27 09:05:06;;;;;;;14.68;4.60;;;18.60;82.60;;;;;;5015284;28;20329;-87
2022/08/27 09:08:03;;;;;;;14.32;4.07;;;18.70;82.40;;;;;;5015202;28;20546;-86
2022/08/27 09:10:49;;;;;;;11.63;4.07;;;18.70;82.70;;;;;;5014676;28;20581;-87
2022/08/27 09:13:26;;;;;;;15.57;3.88;;;18.70;82.90;;;;;;5015124;28;20216;-88
2022/08/27 09:15:57;;;;;;;12.32;3.67;;;18.70;82.80;;;;;;5015308;28;20165;-88
2022/08/27 09:18:23;;;;;;;13.77;3.20;;;18.70;82.80;;;;;;5015973;28;20172;-88
2022/08/27 09:20:53;;;;;;;9.82;3.65;;;18.80;82.50;;;;;;5033092;28;20168;-88
2022/08/27 09:23:52;;;;;;;8.60;3.03;;;18.70;82.50;;;;;;5032743;28;20276;-88
2022/08/27 09:26:21;;;;;;;13.57;3.45;;;18.80;82.40;;;;;;4996841;28;20208;-88
2022/08/27 09:29:19;;;;;;;15.35;3.30;;;18.90;82.60;;;;;;5015182;28;20203;-88
2022/08/27 09:31:41;;;;;;;15.48;3.40;;;18.90;82.00;;;;;;5031696;28;20383;-88
2022/08/27 09:34:07;;;;;;;11.82;3.35;;;18.80;81.40;;;;;;5018799;28;20291;-89
2022/08/27 09:36:32;;;;;;;12.18;3.22;;;18.80;81.00;;;;;;5018910;28;20318;-87
2022/08/27 09:39:03;;;;;;;15.25;3.08;;;18.80;80.10;;;;;;5019030;28;20187;-87
2022/08/27 09:41:34;;;;;;;17.05;2.90;;;18.80;80.30;;;;;;5018868;28;20161;-86
2022/08/27 09:44:10;;;;;;;15.50;3.13;;;18.90;80.00;;;;;;5018399;28;20583;-86
2022/08/27 09:46:36;;;;;;;20.02;3.75;;;19.00;79.50;;;;;;5018406;28;20171;-86
2022/08/27 09:49:16;;;;;;;16.70;3.00;;;19.10;79.40;;;;;;5018519;28;20173;-86
2022/08/27 09:51:44;;;;;;;14.90;2.92;;;19.10;78.20;;;;;;5018669;28;20557;-88
2022/08/27 09:54:10;;;;;;;12.32;2.88;;;19.10;78.00;;;;;;5018567;28;20582;-87
2022/08/27 09:56:49;;;;;;;15.75;3.38;;;19.20;78.10;;;;;;5019044;28;20169;-88
2022/08/27 09:59:34;;;;;;;11.27;3.28;;;19.20;77.90;;;;;;5039197;28;20149;-89
2022/08/27 10:02:13;;;;;;;14.07;3.15;;;19.20;77.40;;;;;;5019999;28;20164;-88
2022/08/27 10:04:46;;;;;;;12.85;3.10;;;19.20;77.10;;;;;;5018588;28;20194;-87
2022/08/27 10:07:51;;;;;;;10.88;2.50;;;19.20;77.00;;;;;;5018159;28;20161;-87
2022/08/27 10:10:34;;;;;;;17.10;3.75;;;19.20;77.50;;;;;;5018130;28;20188;-87
2022/08/27 10:13:12;;;;;;;18.80;3.30;;;19.30;77.20;;;;;;5017919;28;20220;-88
2022/08/27 10:15:59;;;;;;;14.23;3.28;;;19.50;77.50;;;;;;5018110;28;20242;-88
2022/08/27 10:18:56;;;;;;;13.45;3.05;;;19.60;77.60;;;;;;5036147;28;20612;-87
2022/08/27 10:21:31;;;;;;;11.77;3.50;;;19.50;77.20;;;;;;5017898;28;20169;-87
2022/08/27 10:24:34;;;;;;;10.23;2.78;;;19.60;76.80;;;;;;5017739;28;20192;-87
2022/08/27 10:27:16;;;;;;;19.60;3.00;;;19.50;76.60;;;;;;4985101;28;20192;-88
2022/08/27 10:29:51;;;;;;;18.48;3.65;;;19.60;77.20;;;;;;5035418;28;20203;-87
2022/08/27 10:32:16;;;;;;;16.08;3.05;;;19.80;76.20;;;;;;5017610;28;20196;-88
2022/08/27 10:35:10;;;;;;;9.13;2.65;;;19.90;76.60;;;;;;5035291;28;20216;-87
2022/08/27 10:37:51;;;;;;;19.10;3.70;;;20.00;76.00;;;;;;5018405;28;20183;-87
2022/08/27 10:40:38;;;;;;;13.57;2.67;;;20.10;75.70;;;;;;5017835;28;20165;-88
2022/08/27 10:43:22;;;;;;;17.35;3.17;;;20.10;74.20;;;;;;5016520;28;20223;-87
2022/08/27 10:46:02;;;;;;;13.50;3.17;;;20.20;74.10;;;;;;5017635;28;20184;-87
2022/08/27 10:48:39;;;;;;;12.38;2.75;;;20.20;73.70;;;;;;5017446;28;20173;-87
2022/08/27 10:51:10;;;;;;;11.90;3.67;;;20.40;73.90;;;;;;5017317;28;20180;-88
2022/08/27 10:53:44;;;;;;;12.32;2.92;;;20.50;73.50;;;;;;5034965;28;20710;-88
2022/08/27 10:56:37;;;;;;;11.63;3.70;;;20.70;72.30;;;;;;5017409;28;20164;-88
2022/08/27 10:59:05;;;;;;;12.20;3.13;;;20.70;71.70;;;;;;5017213;28;20657;-88
2022/08/27 11:01:31;;;;;;;9.80;2.92;;;20.90;71.90;;;;;;5017060;28;20176;-88
2022/08/27 11:04:09;;;;;;;11.27;2.65;;;21.20;72.50;;;;;;5017197;28;20204;-88
2022/08/27 11:07:00;;;;;;;13.13;2.85;;;21.40;71.10;;;;;;5017177;28;20165;-88
2022/08/27 11:09:34;;;;;;;11.95;3.20;;;21.70;72.00;;;;;;5016893;28;20165;-87
2022/08/27 11:12:05;;;;;;;14.10;3.05;;;21.70;70.80;;;;;;5017733;28;20640;-87
2022/08/27 11:14:37;;;;;;;7.43;2.38;;;21.40;69.80;;;;;;5017026;28;20690;-87
2022/08/27 11:17:13;;;;;;;8.50;2.80;;;21.80;70.80;;;;;;5016811;28;20179;-86
2022/08/27 11:20:01;;;;;;;10.93;3.55;;;21.80;67.90;;;;;;5034504;28;20239;-86
2022/08/27 11:22:36;;;;;;;9.23;2.70;;;21.70;70.30;;;;;;5016680;28;20173;-87
2022/08/27 11:25:29;;;;;;;13.35;2.97;;;22.10;68.40;;;;;;5017350;28;20195;-87
2022/08/27 11:27:56;;;;;;;11.45;2.90;;;21.90;68.70;;;;;;5016540;28;20219;-87
2022/08/27 11:31:29;;;;;;;11.10;2.60;;;22.20;67.00;;;;;;5016544;28;20173;-87
2022/08/27 11:34:17;;;;;;;6.90;1.98;;;22.70;66.50;;;;;;5003530;28;20270;-86
2022/08/27 11:37:05;;;;;;;9.43;2.55;;;22.70;65.40;;;;;;5016497;28;20207;-87
2022/08/27 11:40:07;;;;;;;9.65;2.30;;;22.70;63.50;;;;;;5016390;28;20179;-85
2022/08/27 11:42:43;;;;;;;11.60;2.38;;;22.80;63.00;;;;;;5016741;28;20165;-86
2022/08/27 11:45:17;;;;;;;9.73;3.00;;;22.90;63.30;;;;;;5017112;28;20191;-86
2022/08/27 11:47:58;;;;;;;7.25;1.95;;;23.10;63.10;;;;;;5016286;28;20195;-86
2022/08/27 11:50:25;;;;;;;14.05;2.55;;;23.20;61.50;;;;;;5033897;28;20161;-86
2022/08/27 11:53:08;;;;;;;9.25;2.25;;;23.10;63.00;;;;;;5016066;28;20211;-86
2022/08/27 11:55:37;;;;;;;10.05;2.47;;;23.50;61.40;;;;;;5016160;28;20698;-86
2022/08/27 11:58:18;;;;;;;13.05;2.42;;;23.70;59.00;;;;;;5016192;28;20177;-86
2022/08/27 12:00:45;;;;;;;7.70;2.08;;;23.30;60.40;;;;;;5016090;28;20173;-86
2022/08/27 12:03:25;;;;;;;6.60;1.88;;;23.70;58.20;;;;;;5033549;28;20283;-86
2022/08/27 12:05:54;;;;;;;6.70;2.05;;;23.80;59.80;;;;;;5016041;28;20627;-86
2022/08/27 12:08:22;;;;;;;11.93;2.50;;;23.50;60.10;;;;;;5015880;28;20322;-86
2022/08/27 12:11:27;;;;;;;5.57;2.25;;;23.00;58.40;;;;;;5015918;28;20187;-87
2022/08/27 12:13:53;;;;;;;9.52;2.30;;;23.10;61.50;;;;;;5033446;28;20286;-87
2022/08/27 12:16:52;;;;;;;9.45;2.17;;;23.40;59.90;;;;;;5016721;28;20243;-87
2022/08/27 12:19:44;;;;;;;11.07;2.80;;;23.50;60.00;;;;;;5015705;28;20221;-87
2022/08/27 12:22:22;;;;;;;16.90;2.00;;;23.40;61.10;;;;;;5015670;28;20549;-87
2022/08/27 12:24:54;;;;;;;11.70;2.95;;;23.90;59.80;;;;;;5015744;28;20219;-86
2022/08/27 12:27:30;;;;;;;6.97;1.67;;;23.70;60.50;;;;;;5033569;28;20239;-87
2022/08/27 12:29:59;;;;;;;13.13;2.63;;;23.90;59.50;;;;;;5033712;28;20153;-86
2022/08/27 12:32:43;;;;;;;11.20;2.13;;;23.80;60.10;;;;;;5015566;28;20524;-86
2022/08/27 12:35:15;;;;;;;7.80;2.17;;;23.90;58.90;;;;;;5015558;28;20169;-86
2022/08/27 12:37:53;;;;;;;9.25;2.20;;;23.20;59.40;;;;;;5015590;28;20177;-86
2022/08/27 12:40:24;;;;;;;11.18;2.25;;;23.10;60.60;;;;;;5015935;28;20168;-86
2022/08/27 12:43:02;;;;;;;5.75;1.92;;;23.40;62.10;;;;;;5015578;28;20203;-87
2022/08/27 12:45:29;;;;;;;15.48;2.45;;;23.60;60.60;;;;;;5033529;28;20160;-87
2022/08/27 12:47:56;;;;;;;15.13;2.50;;;23.80;61.00;;;;;;5015851;28;20214;-86
2022/08/27 12:50:29;;;;;;;9.07;2.35;;;23.80;58.60;;;;;;5033099;28;20543;-87
2022/08/27 12:53:11;;;;;;;8.95;2.40;;;24.00;59.40;;;;;;5033655;28;20334;-87
2022/08/27 12:55:58;;;;;;;7.35;1.90;;;23.70;59.70;;;;;;5015536;28;20176;-87
2022/08/27 12:59:11;;;;;;;10.05;2.40;;;24.20;58.90;;;;;;5015442;28;20169;-86
2022/08/27 13:02:18;;;;;;;7.45;2.10;;;24.30;55.60;;;;;;4975564;28;20182;-86
2022/08/27 13:04:45;;;;;;;9.02;2.05;;;24.60;56.70;;;;;;5016215;28;20216;-85
2022/08/27 13:07:10;;;;;;;8.80;2.15;;;24.10;56.20;;;;;;5018149;28;20300;-86
2022/08/27 13:09:38;;;;;;;6.30;2.00;;;23.90;56.80;;;;;;5037067;28;20195;-87